Deer Wells, New York
Current Conditions -  °F | °C
As of 5:14 PM on Tuesday 21 Oct 2014 (Local Time) from KISP Reporting Station
Thunderstorm Thunderstorm  
Wind Chill: 59°   Ceiling: 7000
Heat Index: 59°   Visibility: 7mi
Dew Point: 54°   Wind: 9mph
Humidity: 83%   Direction: 160°SSE
Pressure: 29.84"   Gusts: NA
Location:  40.8903°N, 73.169°W
Report Text: KISP 212114Z 16008KT 7SM -TSRA FEW021 SCT035CB BKN070 OVC130 15/12 A2984 RMK AO2 TSB13 OCNL LTGIC VC E-SE TS VC E-SE MOV E P0004 T01500122
Loading
Personal Weather Stations






























Interactive Weather Map
Tropical Storm Tracking
New forecast layout! Learn more

10-Day Weather Forecast

Advertisements
Track Severe Weather on mobile